Time;durP1;ratioP1;P1;durP2;ratioP2;P2;SDS_P1;SDS_P2;PMS_P1;PMS_P2;Temp;Humidity;BMP_temperature;BMP_pressure;BME280_temperature;BME280_humidity;BME280_pressure;Samples;Min_cycle;Max_cycle;Signal;HPM_P1;HPM_P2
2021/04/12 00:01:51;;;;;;;2.22;2.03;;;3.30;99.90;;;;;;6217772;28;20420;-80
2021/04/12 00:05:16;;;;;;;4.15;2.50;;;4.60;99.90;;;;;;6217969;28;20037;-80
2021/04/12 00:08:16;;;;;;;3.88;2.50;;;6.10;99.90;;;;;;6179895;28;20050;-80
2021/04/12 00:11:35;;;;;;;3.55;3.15;;;4.50;99.90;;;;;;6219097;28;20025;-80
2021/04/12 00:14:46;;;;;;;3.25;2.95;;;5.00;99.90;;;;;;6219164;28;20048;-80
2021/04/12 00:17:46;;;;;;;3.40;3.10;;;4.70;99.90;;;;;;6201002;28;20025;-80
2021/04/12 00:20:55;;;;;;;2.53;2.30;;;4.50;99.90;;;;;;6217354;28;20053;-80
2021/04/12 00:24:04;;;;;;;3.45;2.80;;;5.10;99.90;;;;;;6216234;28;20069;-80
2021/04/12 00:27:06;;;;;;;3.63;2.80;;;4.50;99.90;;;;;;6216708;28;20480;-80
2021/04/12 00:30:10;;;;;;;3.90;2.97;;;4.20;99.90;;;;;;6217112;28;20479;-80
2021/04/12 00:33:31;;;;;;;3.65;3.10;;;4.20;99.90;;;;;;6218978;28;20076;-80
2021/04/12 00:36:36;;;;;;;3.95;3.42;;;4.20;99.90;;;;;;6216633;28;20104;-80
2021/04/12 00:40:09;;;;;;;4.40;3.40;;;4.20;99.90;;;;;;6200433;28;20576;-80
2021/04/12 00:43:30;;;;;;;4.20;3.40;;;4.00;99.90;;;;;;6217779;28;20602;-80
2021/04/12 00:46:46;;;;;;;3.70;3.22;;;4.00;99.90;;;;;;6204331;28;20061;-80
2021/04/12 00:50:04;;;;;;;4.07;3.50;;;3.80;99.90;;;;;;6217612;28;20439;-80
2021/04/12 00:53:34;;;;;;;4.05;3.40;;;4.00;99.90;;;;;;6200251;28;20061;-80
2021/04/12 00:56:51;;;;;;;3.70;3.30;;;4.40;99.90;;;;;;6218610;28;20454;-81
2021/04/12 01:00:20;;;;;;;3.38;2.88;;;3.80;99.90;;;;;;6218843;28;20310;-80
2021/04/12 01:03:32;;;;;;;3.05;2.75;;;3.70;99.90;;;;;;6216523;28;20025;-80
2021/04/12 01:06:59;;;;;;;4.72;2.85;;;3.60;99.90;;;;;;6218782;28;20034;-80
2021/04/12 01:10:03;;;;;;;4.95;3.08;;;3.40;99.90;;;;;;6195478;28;20092;-80
2021/04/12 01:13:05;;;;;;;3.40;3.10;;;;;;;;;;6218529;28;20030;-80
2021/04/12 01:16:06;;;;;;;3.05;2.50;;;3.50;99.90;;;;;;6200099;28;20042;-80
2021/04/12 01:19:44;;;;;;;4.28;2.50;;;4.10;99.90;;;;;;6218128;28;20392;-80
2021/04/12 01:23:06;;;;;;;2.40;2.20;;;3.50;99.90;;;;;;6218145;28;20033;-80
2021/04/12 01:26:22;;;;;;;2.97;2.50;;;3.40;99.90;;;;;;6218068;28;20029;-80
2021/04/12 01:29:41;;;;;;;2.95;2.47;;;3.60;99.90;;;;;;6216820;28;20033;-80
2021/04/12 01:33:19;;;;;;;2.00;1.88;;;3.40;99.90;;;;;;6218446;28;20160;-81
2021/04/12 01:36:47;;;;;;;2.25;2.00;;;3.30;99.90;;;;;;6232421;28;20038;-80
2021/04/12 01:40:33;;;;;;;2.58;2.20;;;3.30;99.90;;;;;;6236261;28;20073;-80
2021/04/12 01:43:59;;;;;;;2.42;2.22;;;3.40;99.90;;;;;;6203974;28;20461;-80
2021/04/12 01:47:20;;;;;;;2.45;2.25;;;3.30;99.90;;;;;;6222135;28;20589;-80
2021/04/12 01:50:36;;;;;;;2.53;2.08;;;3.00;99.90;;;;;;6222829;28;20036;-80
2021/04/12 01:53:42;;;;;;;1.98;1.88;;;3.10;99.90;;;;;;6222196;28;20046;-80
2021/04/12 01:57:24;;;;;;;2.22;1.83;;;3.00;99.90;;;;;;6222899;28;20061;-80
2021/04/12 02:00:54;;;;;;;2.28;2.00;;;3.00;99.90;;;;;;6146636;29;20398;-80
2021/04/12 02:04:10;;;;;;;1.27;1.27;;;;;;;;;;6133157;29;20591;-80
2021/04/12 02:07:20;;;;;;;1.83;1.73;;;;;;;;;;6146438;29;20039;-80
2021/04/12 02:10:32;;;;;;;2.22;2.03;;;3.10;99.90;;;;;;6114652;29;20039;-80
2021/04/12 02:13:44;;;;;;;1.65;1.55;;;3.30;99.90;;;;;;6130415;29;20069;-80
2021/04/12 02:16:59;;;;;;;1.60;1.50;;;3.00;99.90;;;;;;6146575;29;20634;-80
2021/04/12 02:20:40;;;;;;;1.92;1.73;;;2.90;99.90;;;;;;6130224;29;20441;-80
2021/04/12 02:23:48;;;;;;;2.20;2.00;;;2.80;99.90;;;;;;6113256;29;20047;-80
2021/04/12 02:26:48;;;;;;;2.67;2.30;;;3.00;99.90;;;;;;6130079;29;20046;-80
2021/04/12 02:29:49;;;;;;;2.10;1.95;;;3.60;99.90;;;;;;6146152;29;20035;-80
2021/04/12 02:33:19;;;;;;;2.17;1.98;;;2.90;99.90;;;;;;6151638;28;20043;-80
2021/04/12 02:36:35;;;;;;;1.85;1.75;;;2.90;99.90;;;;;;6219617;28;20034;-80
2021/04/12 02:39:56;;;;;;;2.30;2.10;;;2.90;99.90;;;;;;6221575;28;20080;-80
2021/04/12 02:43:04;;;;;;;2.53;2.13;;;2.90;99.90;;;;;;6219444;28;20076;-81
2021/04/12 02:46:41;;;;;;;4.72;2.28;;;3.00;99.90;;;;;;6221476;28;20032;-80
2021/04/12 02:49:53;;;;;;;1.70;1.60;;;3.00;99.90;;;;;;6220199;28;20544;-80
2021/04/12 02:53:06;;;;;;;2.30;2.08;;;;;;;;;;6219421;28;20037;-80
2021/04/12 02:56:25;;;;;;;2.20;2.00;;;2.80;99.90;;;;;;6221035;28;20046;-80
2021/04/12 03:00:03;;;;;;;3.42;2.40;;;3.00;99.90;;;;;;6220880;28;20030;-80
2021/04/12 03:03:24;;;;;;;3.40;2.30;;;2.80;99.90;;;;;;6221388;28;20040;-80
2021/04/12 03:07:10;;;;;;;2.70;2.47;;;2.80;99.90;;;;;;6221324;28;20080;-80
2021/04/12 03:10:35;;;;;;;2.65;2.45;;;;;;;;;;6217341;28;20135;-80
2021/04/12 03:13:57;;;;;;;3.22;2.70;;;2.70;99.90;;;;;;6220624;28;20030;-80
2021/04/12 03:17:10;;;;;;;2.95;2.65;;;2.80;99.90;;;;;;6220433;28;20034;-80
2021/04/12 03:20:38;;;;;;;3.42;2.95;;;2.60;99.90;;;;;;6220999;28;20093;-80
2021/04/12 03:24:02;;;;;;;3.47;3.17;;;2.80;99.90;;;;;;6220880;28;20033;-79
2021/04/12 03:27:22;;;;;;;4.22;2.95;;;3.10;99.90;;;;;;6218729;28;20057;-80
2021/04/12 03:30:26;;;;;;;4.53;3.63;;;3.20;99.90;;;;;;6218937;28;20030;-80
2021/04/12 03:33:57;;;;;;;3.90;3.50;;;2.70;99.90;;;;;;6220151;28;20392;-79
2021/04/12 03:37:00;;;;;;;3.47;3.17;;;2.80;99.90;;;;;;6218891;28;20141;-80
2021/04/12 03:40:16;;;;;;;3.92;3.10;;;2.70;99.90;;;;;;6220257;28;20112;-80
2021/04/12 03:43:23;;;;;;;3.78;3.38;;;2.70;99.90;;;;;;6220143;28;20468;-79
2021/04/12 03:46:57;;;;;;;5.05;3.40;;;2.60;99.90;;;;;;6220249;28;20472;-79
2021/04/12 03:49:58;;;;;;;4.63;3.38;;;2.60;99.90;;;;;;6218449;28;20859;-79
2021/04/12 03:53:31;;;;;;;4.85;4.30;;;2.50;99.90;;;;;;6220162;28;20030;-79
2021/04/12 03:56:32;;;;;;;;;;;;;;;;;;6209279;28;20147;-79
2021/04/12 03:59:51;;;;;;;4.85;3.67;;;2.50;99.90;;;;;;6220326;28;19906;-79
2021/04/12 04:03:29;;;;;;;3.60;3.17;;;2.40;99.90;;;;;;6218888;28;20041;-79
2021/04/12 04:06:51;;;;;;;4.00;2.80;;;2.60;99.90;;;;;;6219897;28;20464;-78
2021/04/12 04:10:04;;;;;;;3.53;2.60;;;2.40;99.90;;;;;;6234341;28;20057;-79
2021/04/12 04:13:32;;;;;;;3.40;2.95;;;2.40;99.90;;;;;;6219697;28;20026;-78
2021/04/12 04:17:00;;;;;;;3.88;3.00;;;2.40;99.90;;;;;;6219329;28;20051;-79
2021/04/12 04:20:22;;;;;;;3.22;2.80;;;3.70;99.90;;;;;;6217783;28;20026;-79
2021/04/12 04:23:30;;;;;;;4.28;3.50;;;2.50;99.90;;;;;;6219349;28;20037;-79
2021/04/12 04:26:52;;;;;;;4.10;3.35;;;2.50;99.90;;;;;;6219427;28;20033;-79
2021/04/12 04:30:21;;;;;;;3.65;3.25;;;2.20;99.90;;;;;;6219098;28;20111;-79
2021/04/12 04:33:25;;;;;;;3.45;3.00;;;2.40;99.90;;;;;;6217672;28;20026;-78
2021/04/12 04:36:39;;;;;;;3.60;3.05;;;2.00;99.90;;;;;;6217430;28;20073;-79
2021/04/12 04:40:05;;;;;;;5.28;3.75;;;2.20;99.90;;;;;;6209495;28;20046;-79
2021/04/12 04:43:13;;;;;;;4.10;3.47;;;;;;;;;;6179441;28;20031;-79
2021/04/12 04:46:34;;;;;;;4.18;3.70;;;;;;;;;;6193065;28;20026;-79
2021/04/12 04:50:13;;;;;;;3.45;3.15;;;2.30;99.90;;;;;;6209926;28;20128;-79
2021/04/12 04:53:44;;;;;;;3.60;3.30;;;2.90;99.90;;;;;;6181993;28;20043;-79
2021/04/12 04:56:54;;;;;;;3.20;2.90;;;2.30;99.90;;;;;;6192381;28;20181;-79
2021/04/12 05:00:01;;;;;;;3.65;3.20;;;2.30;99.90;;;;;;6194503;28;20034;-78
2021/04/12 05:03:21;;;;;;;3.88;3.28;;;2.30;99.90;;;;;;6209050;28;20452;-79
2021/04/12 05:06:51;;;;;;;3.58;3.13;;;2.50;99.90;;;;;;6178445;28;20026;-79
2021/04/12 05:10:19;;;;;;;3.88;3.20;;;2.40;99.90;;;;;;6193375;28;20568;-79
2021/04/12 05:13:50;;;;;;;4.03;3.22;;;2.30;99.90;;;;;;6195969;28;20158;-80
2021/04/12 05:17:28;;;;;;;5.78;3.42;;;2.40;99.90;;;;;;6199549;28;20061;-79
2021/04/12 05:20:56;;;;;;;6.75;4.65;;;2.30;99.90;;;;;;6198993;28;20065;-79
2021/04/12 05:24:25;;;;;;;51.78;29.13;;;2.30;99.90;;;;;;6198224;28;20093;-79
2021/04/12 05:27:38;;;;;;;55.80;33.58;;;2.30;99.90;;;;;;6181529;28;20042;-78
2021/04/12 05:31:15;;;;;;;5.50;4.20;;;2.30;99.90;;;;;;6199208;28;20031;-79
2021/04/12 05:34:44;;;;;;;5.60;5.10;;;2.30;99.90;;;;;;6198866;28;20049;-79
2021/04/12 05:37:54;;;;;;;5.03;4.53;;;2.30;99.90;;;;;;6198821;28;20042;-79
2021/04/12 05:41:13;;;;;;;6.00;4.57;;;2.30;99.90;;;;;;6216122;28;20132;-78
2021/04/12 05:44:29;;;;;;;5.45;4.57;;;2.30;99.90;;;;;;6222325;28;20034;-79
2021/04/12 05:47:39;;;;;;;6.63;4.40;;;2.20;99.90;;;;;;6220923;28;20036;-79
2021/04/12 05:51:07;;;;;;;5.50;4.43;;;2.10;99.90;;;;;;6222391;28;20034;-79
2021/04/12 05:54:20;;;;;;;5.47;4.68;;;2.40;99.90;;;;;;6222342;28;20033;-79
2021/04/12 05:57:45;;;;;;;5.45;4.85;;;2.40;99.90;;;;;;6205538;28;20077;-78
2021/04/12 06:01:07;;;;;;;5.78;4.90;;;2.60;99.90;;;;;;6213600;28;20042;-79
2021/04/12 06:04:17;;;;;;;5.75;4.85;;;2.40;99.90;;;;;;6198959;28;20034;-79
2021/04/12 06:07:45;;;;;;;6.57;4.80;;;2.00;99.90;;;;;;6199569;28;20037;-79
2021/04/12 06:11:32;;;;;;;6.15;5.05;;;2.40;99.90;;;;;;6221772;28;20156;-79
2021/04/12 06:15:13;;;;;;;6.22;4.82;;;2.50;99.90;;;;;;6220756;28;20384;-79
2021/04/12 06:18:50;;;;;;;6.60;4.97;;;2.50;99.90;;;;;;6223095;28;20040;-81
2021/04/12 06:21:56;;;;;;;6.35;5.13;;;2.50;99.90;;;;;;6220216;28;20404;-79
2021/04/12 06:28:54;;;;;;;6.70;5.40;;;;;;;;;;6198654;28;20065;-79
2021/04/12 06:32:03;;;;;;;7.45;5.95;;;2.80;99.90;;;;;;6197978;28;20076;-79
2021/04/12 06:35:33;;;;;;;5.70;4.72;;;2.90;99.90;;;;;;6197847;28;20073;-79
2021/04/12 06:38:57;;;;;;;8.68;5.35;;;2.90;99.90;;;;;;6213187;28;20029;-80
2021/04/12 06:42:09;;;;;;;6.15;5.55;;;3.00;99.90;;;;;;6219940;28;20026;-81
2021/04/12 06:45:22;;;;;;;7.90;5.70;;;3.00;99.90;;;;;;6220804;28;20388;-81
2021/04/12 06:48:45;;;;;;;6.82;5.72;;;3.10;99.90;;;;;;6235872;28;20056;-81
2021/04/12 06:51:55;;;;;;;8.82;6.20;;;;;;;;;;6220927;28;20042;-80
2021/04/12 06:55:20;;;;;;;6.65;5.82;;;3.30;99.90;;;;;;6220766;28;20383;-80
2021/04/12 06:58:31;;;;;;;6.57;5.72;;;3.40;99.90;;;;;;6220838;28;20076;-80
2021/04/12 07:01:36;;;;;;;6.05;5.45;;;3.40;99.90;;;;;;6219512;28;20063;-81
2021/04/12 07:04:58;;;;;;;6.10;4.82;;;3.50;99.90;;;;;;6220825;28;20026;-80
2021/04/12 07:08:20;;;;;;;4.30;3.88;;;3.70;99.90;;;;;;6220417;28;20033;-81
2021/04/12 07:11:46;;;;;;;4.80;4.18;;;3.70;99.90;;;;;;6220520;28;20083;-81
2021/04/12 07:15:19;;;;;;;4.32;3.55;;;3.80;99.90;;;;;;6220103;28;20100;-81
2021/04/12 07:18:41;;;;;;;5.40;3.83;;;3.70;99.90;;;;;;6218724;28;20108;-81
2021/04/12 07:21:59;;;;;;;3.90;3.30;;;3.90;99.90;;;;;;6220390;28;20026;-80
2021/04/12 07:25:29;;;;;;;5.03;3.80;;;4.00;99.90;;;;;;6219868;28;20506;-81
2021/04/12 07:28:49;;;;;;;4.32;3.80;;;4.00;99.90;;;;;;6218517;28;20033;-81
2021/04/12 07:32:20;;;;;;;7.43;3.20;;;4.00;99.90;;;;;;6234998;28;20030;-81
2021/04/12 07:35:43;;;;;;;3.42;2.90;;;4.20;99.90;;;;;;6207065;28;20042;-80
2021/04/12 07:39:05;;;;;;;3.67;2.80;;;4.20;99.90;;;;;;6200012;28;20077;-81
2021/04/12 07:42:28;;;;;;;14.50;3.47;;;;;;;;;;6222119;28;20354;-80
2021/04/12 07:45:37;;;;;;;4.78;3.88;;;4.30;99.90;;;;;;6219936;28;20079;-81
2021/04/12 07:49:20;;;;;;;9.43;4.72;;;4.30;99.90;;;;;;6220007;28;20117;-80
2021/04/12 07:52:57;;;;;;;4.43;3.90;;;4.60;99.90;;;;;;6186487;28;20042;-81
2021/04/12 07:56:23;;;;;;;6.30;5.70;;;4.80;99.90;;;;;;6217907;28;20625;-80
2021/04/12 07:59:54;;;;;;;5.20;4.50;;;5.10;99.90;;;;;;6219737;28;20036;-80
2021/04/12 08:03:42;;;;;;;5.32;4.10;;;5.30;99.90;;;;;;6218272;28;20443;-81
2021/04/12 08:07:11;;;;;;;6.25;4.80;;;5.60;99.90;;;;;;6212570;28;20467;-81
2021/04/12 08:10:34;;;;;;;6.90;5.57;;;5.70;99.90;;;;;;6234468;28;20079;-80
2021/04/12 08:13:53;;;;;;;5.10;4.57;;;5.70;99.90;;;;;;6219932;28;20553;-80
2021/04/12 08:17:35;;;;;;;9.07;7.10;;;5.90;99.90;;;;;;6234042;28;20100;-81
2021/04/12 08:21:01;;;;;;;5.03;4.47;;;6.00;99.90;;;;;;6196925;28;20033;-81
2021/04/12 08:24:39;;;;;;;4.75;4.25;;;6.20;99.90;;;;;;6220100;28;20064;-81
2021/04/12 08:27:55;;;;;;;6.10;4.50;;;6.30;99.90;;;;;;6234305;28;20034;-81
2021/04/12 08:31:26;;;;;;;6.25;4.93;;;6.70;99.90;;;;;;6219102;28;20499;-81
2021/04/12 08:34:57;;;;;;;5.90;5.18;;;6.90;99.90;;;;;;6201111;28;20076;-80
2021/04/12 08:38:16;;;;;;;7.15;5.70;;;7.00;99.90;;;;;;6219332;28;20034;-80
2021/04/12 08:41:39;;;;;;;7.05;6.05;;;6.90;99.90;;;;;;6233773;28;20053;-80
2021/04/12 08:44:41;;;;;;;7.15;5.60;;;6.90;99.90;;;;;;6219266;28;20573;-81
2021/04/12 08:47:56;;;;;;;7.82;6.40;;;;;;;;;;6216791;28;20109;-81
2021/04/12 08:51:25;;;;;;;7.72;6.63;;;6.70;99.90;;;;;;6233788;28;20037;-80
2021/04/12 08:54:31;;;;;;;8.45;7.07;;;6.80;99.90;;;;;;6218621;28;20034;-80
2021/04/12 08:58:00;;;;;;;9.75;7.40;;;7.00;99.90;;;;;;6218959;28;20361;-81
2021/04/12 09:01:25;;;;;;;8.85;6.53;;;7.00;99.90;;;;;;6217264;28;20034;-81
2021/04/12 09:04:46;;;;;;;7.22;6.47;;;7.10;99.90;;;;;;6233164;28;20120;-80
2021/04/12 09:07:59;;;;;;;8.43;7.13;;;7.10;99.90;;;;;;6218651;28;20168;-80
2021/04/12 09:11:34;;;;;;;10.90;7.28;;;7.20;99.90;;;;;;6218365;28;20115;-81
2021/04/12 09:15:15;;;;;;;9.88;7.75;;;7.40;99.90;;;;;;6216646;28;20042;-81
2021/04/12 09:18:35;;;;;;;8.65;7.30;;;9.10;99.90;;;;;;6216960;28;20120;-81
2021/04/12 09:22:14;;;;;;;9.50;7.47;;;8.40;99.90;;;;;;6217204;28;20028;-81
2021/04/12 09:25:36;;;;;;;10.32;8.30;;;8.50;99.90;;;;;;6218608;28;20030;-81
2021/04/12 09:29:12;;;;;;;8.15;6.97;;;8.60;99.90;;;;;;6217474;28;20472;-81
2021/04/12 09:32:30;;;;;;;8.07;6.18;;;8.70;99.90;;;;;;6120408;28;20032;-81
2021/04/12 09:36:03;;;;;;;7.97;6.50;;;9.00;98.60;;;;;;6216537;28;20042;-81
2021/04/12 09:39:22;;;;;;;7.65;6.80;;;8.80;99.60;;;;;;6217073;28;20058;-81
2021/04/12 09:42:46;;;;;;;8.95;8.05;;;9.90;99.80;;;;;;6218202;28;20542;-79
2021/04/12 09:46:18;;;;;;;6.47;5.72;;;10.40;95.90;;;;;;6200260;28;20045;-79
2021/04/12 09:49:43;;;;;;;6.40;5.80;;;10.50;97.60;;;;;;6218527;28;20038;-79
2021/04/12 09:53:00;;;;;;;7.85;5.68;;;10.40;95.50;;;;;;6218335;28;20026;-79
2021/04/12 09:56:38;;;;;;;7.65;5.63;;;9.80;98.00;;;;;;6200027;28;20048;-80
2021/04/12 09:59:56;;;;;;;7.07;5.68;;;9.60;97.80;;;;;;6220061;28;20040;-81
2021/04/12 10:03:16;;;;;;;5.88;5.28;;;9.40;98.90;;;;;;6220737;28;20061;-79
2021/04/12 10:06:50;;;;;;;8.13;5.30;;;9.30;98.70;;;;;;6222806;28;20030;-79
2021/04/12 10:10:17;;;;;;;9.93;5.88;;;9.40;96.20;;;;;;6222428;28;20039;-79
2021/04/12 10:13:41;;;;;;;7.63;5.82;;;9.10;98.30;;;;;;6204468;28;20034;-81
2021/04/12 10:16:50;;;;;;;6.85;5.63;;;8.80;99.30;;;;;;6222436;28;20034;-81
2021/04/12 10:19:55;;;;;;;6.95;6.15;;;8.20;99.90;;;;;;6220425;28;20022;-79
2021/04/12 10:23:00;;;;;;;6.80;6.05;;;8.00;99.90;;;;;;6203920;28;21041;-78
2021/04/12 10:26:05;;;;;;;9.80;6.65;;;;;;;;;;6220374;28;20029;-81
2021/04/12 10:29:15;;;;;;;7.00;5.95;;;;;;;;;;6220625;28;20459;-80
2021/04/12 10:32:27;;;;;;;6.88;6.18;;;;;;;;;;6203830;28;20025;-81
2021/04/12 10:35:28;;;;;;;8.77;6.55;;;;;;;;;;6220176;28;20216;-81
2021/04/12 10:38:31;;;;;;;8.15;6.93;;;7.10;99.90;;;;;;6221554;28;20037;-79
2021/04/12 10:41:42;;;;;;;9.18;7.15;;;7.60;99.90;;;;;;6219957;28;20041;-79
2021/04/12 10:44:52;;;;;;;10.02;7.63;;;7.60;99.90;;;;;;6205240;28;20040;-81
2021/04/12 10:47:59;;;;;;;10.20;7.10;;;8.70;99.90;;;;;;6173873;28;20442;-80
2021/04/12 10:51:08;;;;;;;10.10;7.35;;;8.90;99.90;;;;;;6219839;28;20111;-79
2021/04/12 10:54:30;;;;;;;8.15;6.95;;;9.50;99.40;;;;;;6219811;28;20556;-79
2021/04/12 10:57:46;;;;;;;10.18;6.45;;;;;;;;;;6219778;28;20033;-79
2021/04/12 11:00:55;;;;;;;6.35;5.53;;;9.90;99.20;;;;;;6203317;28;20500;-79
2021/04/12 11:04:59;;;;;;;6.35;5.20;;;10.50;91.70;;;;;;6219749;28;20030;-79
2021/04/12 11:08:18;;;;;;;7.05;5.32;;;10.70;92.70;;;;;;6114212;29;20039;-79
2021/04/12 11:11:23;;;;;;;7.43;5.13;;;;;;;;;;6102813;29;20070;-79
2021/04/12 11:14:24;;;;;;;7.78;5.32;;;;;;;;;;6105671;29;20407;-79
2021/04/12 11:17:30;;;;;;;6.30;5.30;;;;;;;;;;6120900;29;20059;-79
2021/04/12 11:20:36;;;;;;;10.65;4.80;;;10.70;96.80;;;;;;6120887;29;20042;-79
2021/04/12 11:23:39;;;;;;;5.28;4.78;;;11.50;92.30;;;;;;6101333;29;20487;-80
2021/04/12 11:26:39;;;;;;;7.00;4.57;;;11.70;95.00;;;;;;6083978;29;20048;-80
2021/04/12 11:29:41;;;;;;;5.80;4.85;;;11.90;93.60;;;;;;6117231;29;20502;-79
2021/04/12 11:32:56;;;;;;;5.50;5.00;;;12.20;91.40;;;;;;6081948;29;20032;-79
2021/04/12 11:36:10;;;;;;;5.30;4.80;;;12.40;89.50;;;;;;6097891;29;20064;-80
2021/04/12 11:39:23;;;;;;;5.45;4.93;;;11.90;87.40;;;;;;6104820;29;20479;-80
2021/04/12 11:42:30;;;;;;;7.40;5.60;;;11.50;92.20;;;;;;6175044;28;20077;-80
2021/04/12 11:45:40;;;;;;;6.22;5.35;;;11.20;90.20;;;;;;6218884;28;20041;-80
2021/04/12 11:48:54;;;;;;;7.13;5.55;;;11.10;92.20;;;;;;6218580;28;20061;-80
2021/04/12 11:52:00;;;;;;;7.50;5.47;;;11.00;93.50;;;;;;6234848;28;20473;-80
2021/04/12 11:55:15;;;;;;;8.00;5.55;;;11.00;93.00;;;;;;6219797;28;20084;-80
2021/04/12 11:58:28;;;;;;;14.45;13.10;;;11.40;92.90;;;;;;6201880;28;20216;-80
2021/04/12 12:01:31;;;;;;;6.57;5.53;;;;;;;;;;6188796;28;20385;-80
2021/04/12 12:04:52;;;;;;;7.10;5.30;;;12.60;90.30;;;;;;6207122;28;20030;-79
2021/04/12 12:08:14;;;;;;;5.47;4.97;;;12.20;92.40;;;;;;6214297;28;20025;-80
2021/04/12 12:11:33;;;;;;;6.20;5.60;;;12.20;81.70;;;;;;6208195;28;20068;-80
2021/04/12 12:14:39;;;;;;;7.50;5.30;;;12.10;77.10;;;;;;6190048;28;20034;-80
2021/04/12 12:17:45;;;;;;;7.15;5.85;;;11.60;78.10;;;;;;6218068;28;20382;-80
2021/04/12 12:20:48;;;;;;;6.65;5.55;;;11.20;80.60;;;;;;6217568;28;20030;-80
2021/04/12 12:24:13;;;;;;;9.27;5.22;;;10.60;79.70;;;;;;6200546;28;20072;-80
2021/04/12 12:27:24;;;;;;;6.93;5.43;;;10.60;80.20;;;;;;6211182;28;20036;-80
2021/04/12 12:31:10;;;;;;;7.57;6.15;;;10.60;78.30;;;;;;6201330;28;20033;-80
2021/04/12 12:34:34;;;;;;;6.72;5.63;;;10.50;77.90;;;;;;6127456;29;20043;-80
2021/04/12 12:38:19;;;;;;;7.35;6.32;;;10.30;74.00;;;;;;6143739;29;20474;-79
2021/04/12 12:41:23;;;;;;;9.80;5.60;;;9.90;76.10;;;;;;6072528;29;20061;-80
2021/04/12 12:44:24;;;;;;;8.48;6.30;;;10.00;83.00;;;;;;6057304;29;20716;-80
2021/04/12 12:47:25;;;;;;;7.10;6.40;;;10.10;80.90;;;;;;6057575;29;20149;-79
2021/04/12 12:50:47;;;;;;;6.45;5.55;;;9.90;80.90;;;;;;6057109;29;20473;-80
2021/04/12 12:53:49;;;;;;;6.97;5.78;;;9.90;76.90;;;;;;6057196;29;20037;-79
2021/04/12 12:56:50;;;;;;;6.93;6.22;;;9.90;81.10;;;;;;6056832;29;20143;-80
2021/04/12 12:59:52;;;;;;;6.82;5.60;;;10.00;79.90;;;;;;6056917;29;20040;-79
2021/04/12 13:02:53;;;;;;;7.68;5.80;;;9.90;82.00;;;;;;6042061;29;20075;-80
2021/04/12 13:05:54;;;;;;;7.13;5.75;;;10.00;80.60;;;;;;6057011;29;20521;-79
2021/04/12 13:09:26;;;;;;;6.63;5.97;;;10.60;92.10;;;;;;6059800;29;20048;-80
2021/04/12 13:12:33;;;;;;;7.00;6.30;;;10.60;92.20;;;;;;6088226;29;20079;-79
2021/04/12 13:15:37;;;;;;;8.77;6.35;;;10.60;79.10;;;;;;6129742;28;20105;-80
2021/04/12 13:18:39;;;;;;;7.32;6.35;;;10.40;75.10;;;;;;6192734;28;20031;-80
2021/04/12 13:21:43;;;;;;;8.32;6.97;;;10.00;94.90;;;;;;6176974;28;20519;-80
2021/04/12 13:24:44;;;;;;;10.23;6.20;;;;;;;;;;6183036;28;20580;-80
2021/04/12 13:27:46;;;;;;;11.65;6.25;;;9.70;91.70;;;;;;6193286;28;20026;-80
2021/04/12 13:31:07;;;;;;;7.88;6.25;;;9.70;86.00;;;;;;6192776;28;20373;-80
2021/04/12 13:34:22;;;;;;;9.73;5.97;;;9.50;92.30;;;;;;6210097;28;20065;-80
2021/04/12 13:37:31;;;;;;;7.82;6.25;;;9.40;91.70;;;;;;6197258;28;20030;-80
2021/04/12 13:40:35;;;;;;;6.93;6.22;;;9.30;93.30;;;;;;6196563;28;20515;-80
2021/04/12 13:43:41;;;;;;;6.53;5.63;;;9.10;91.50;;;;;;6197090;28;20034;-79
2021/04/12 13:46:59;;;;;;;7.18;5.78;;;8.80;92.80;;;;;;6197220;28;20469;-80
2021/04/12 13:50:17;;;;;;;8.18;6.07;;;8.70;93.80;;;;;;6196939;28;20030;-79
2021/04/12 13:53:25;;;;;;;9.70;6.60;;;;;;;;;;6182331;28;20084;-79
2021/04/12 13:56:40;;;;;;;6.68;5.43;;;8.30;96.40;;;;;;6196747;28;20035;-80
2021/04/12 13:59:42;;;;;;;6.28;5.47;;;8.20;96.00;;;;;;6197162;28;20740;-79
2021/04/12 14:02:52;;;;;;;8.02;5.90;;;;;;;;;;6181375;28;20388;-80
2021/04/12 14:05:57;;;;;;;6.22;5.60;;;8.20;95.20;;;;;;6197241;28;20100;-79
2021/04/12 14:09:09;;;;;;;12.25;8.25;;;8.20;94.50;;;;;;6196833;28;20124;-80
2021/04/12 14:12:27;;;;;;;17.60;9.65;;;8.50;93.90;;;;;;6196831;28;20038;-79
2021/04/12 14:15:28;;;;;;;7.80;5.63;;;8.40;95.00;;;;;;6196574;28;20039;-80
2021/04/12 14:18:30;;;;;;;8.95;5.30;;;;;;;;;;6213164;28;20134;-79
2021/04/12 14:21:46;;;;;;;7.93;5.55;;;8.80;89.80;;;;;;6197878;28;20037;-79
2021/04/12 14:24:49;;;;;;;6.18;5.28;;;8.90;87.50;;;;;;6196941;28;20030;-79
2021/04/12 14:27:49;;;;;;;7.10;5.88;;;9.00;95.50;;;;;;6196506;28;20062;-79
2021/04/12 14:30:50;;;;;;;6.70;5.30;;;;;;;;;;6196410;28;20474;-79
2021/04/12 14:34:32;;;;;;;29.40;13.85;;;8.80;94.80;;;;;;6212387;28;20033;-79
2021/04/12 14:37:34;;;;;;;8.40;6.47;;;;;;;;;;6152766;28;20471;-79
2021/04/12 14:40:35;;;;;;;11.20;7.30;;;;;;;;;;6212152;28;20084;-79
2021/04/12 14:43:36;;;;;;;8.57;6.10;;;8.80;92.20;;;;;;6219644;28;20388;-80
2021/04/12 14:46:42;;;;;;;7.28;5.85;;;8.90;95.00;;;;;;6213697;28;20519;-80
2021/04/12 14:49:45;;;;;;;7.95;5.57;;;9.20;84.90;;;;;;6196375;28;20495;-79
2021/04/12 14:52:58;;;;;;;7.95;6.00;;;9.00;90.30;;;;;;6219537;28;20029;-79
2021/04/12 14:56:06;;;;;;;;;;;8.80;90.30;;;;;;6221083;28;20124;-79
2021/04/12 14:59:07;;;;;;;6.38;5.63;;;8.80;92.80;;;;;;6220452;28;19909;-79
2021/04/12 15:02:26;;;;;;;11.18;7.43;;;8.40;92.70;;;;;;6202995;28;20057;-79
2021/04/12 15:05:40;;;;;;;6.55;5.85;;;8.50;94.40;;;;;;6218694;28;20653;-79
2021/04/12 15:08:47;;;;;;;9.93;6.20;;;8.70;93.70;;;;;;6217692;28;20175;-80
2021/04/12 15:12:11;;;;;;;6.88;5.53;;;8.70;96.10;;;;;;6208390;28;20026;-79
2021/04/12 15:15:13;;;;;;;7.65;6.20;;;8.70;96.60;;;;;;6221471;28;20559;-79
2021/04/12 15:18:29;;;;;;;7.15;5.75;;;8.60;96.40;;;;;;6194170;28;20108;-79
2021/04/12 15:21:31;;;;;;;9.75;5.93;;;;;;;;;;6180758;28;20031;-80
2021/04/12 15:24:35;;;;;;;8.77;6.75;;;9.60;95.20;;;;;;6195814;28;20483;-80
2021/04/12 15:27:41;;;;;;;6.50;5.10;;;9.30;95.80;;;;;;6180027;28;20083;-80
2021/04/12 15:31:01;;;;;;;6.55;5.82;;;9.30;95.40;;;;;;6196596;28;20161;-80
2021/04/12 15:34:08;;;;;;;7.40;5.80;;;;;;;;;;6211280;28;20034;-79
2021/04/12 15:37:33;;;;;;;6.35;4.97;;;;;;;;;;6214704;28;20136;-79
2021/04/12 15:40:52;;;;;;;6.80;5.75;;;8.60;95.60;;;;;;6216055;28;20535;-80
2021/04/12 15:44:24;;;;;;;8.60;5.28;;;8.60;90.90;;;;;;6211105;28;20033;-80
2021/04/12 15:47:25;;;;;;;11.63;7.20;;;8.40;94.00;;;;;;6218554;28;20447;-79
2021/04/12 15:50:32;;;;;;;5.85;5.20;;;8.20;93.10;;;;;;6218482;28;20030;-79
2021/04/12 15:53:33;;;;;;;7.35;5.05;;;8.20;96.30;;;;;;6218493;28;20041;-79
2021/04/12 15:56:45;;;;;;;8.35;5.40;;;8.30;96.70;;;;;;6218011;28;20104;-80
2021/04/12 15:59:49;;;;;;;6.20;5.40;;;8.30;96.30;;;;;;6198662;28;20030;-80
2021/04/12 16:02:52;;;;;;;7.32;5.32;;;8.40;95.70;;;;;;6201637;28;20400;-79
2021/04/12 16:06:06;;;;;;;6.20;5.20;;;8.60;96.60;;;;;;6202076;28;20037;-79
2021/04/12 16:09:12;;;;;;;8.52;5.72;;;8.50;96.90;;;;;;6186664;28;20467;-80
2021/04/12 16:12:14;;;;;;;7.57;5.10;;;8.70;95.90;;;;;;6217921;28;20032;-79
2021/04/12 16:15:26;;;;;;;6.03;5.20;;;8.80;96.60;;;;;;6185810;28;20038;-79
2021/04/12 16:18:50;;;;;;;7.20;4.85;;;8.70;96.40;;;;;;6218305;28;20164;-79
2021/04/12 16:22:30;;;;;;;6.70;5.80;;;8.80;95.00;;;;;;6218295;28;20392;-79
2021/04/12 16:25:49;;;;;;;5.25;4.68;;;8.80;94.70;;;;;;6214029;28;20100;-79
2021/04/12 16:29:11;;;;;;;5.57;4.97;;;9.00;93.40;;;;;;6217287;28;20026;-79
2021/04/12 16:32:44;;;;;;;8.97;5.20;;;9.00;95.80;;;;;;6219557;28;20033;-80
2021/04/12 16:36:12;;;;;;;7.75;5.18;;;8.90;96.10;;;;;;6201387;28;20033;-79
2021/04/12 16:39:34;;;;;;;7.15;5.13;;;9.10;95.90;;;;;;6217562;28;20388;-79
2021/04/12 16:42:36;;;;;;;6.25;4.72;;;9.20;97.30;;;;;;6187099;28;20030;-79
2021/04/12 16:45:42;;;;;;;6.93;5.13;;;9.30;97.70;;;;;;6169855;28;20117;-79
2021/04/12 16:48:50;;;;;;;6.57;4.85;;;9.20;95.30;;;;;;6200688;28;20315;-80
2021/04/12 16:52:13;;;;;;;9.07;6.60;;;9.10;96.00;;;;;;6216989;28;20061;-79
2021/04/12 16:55:29;;;;;;;7.45;5.13;;;9.00;98.00;;;;;;6218576;28;20041;-79
2021/04/12 16:58:31;;;;;;;6.25;5.65;;;8.10;96.60;;;;;;6218784;28;20037;-79
2021/04/12 17:01:43;;;;;;;7.10;6.22;;;;;;;;;;6213592;28;20022;-79
2021/04/12 17:04:48;;;;;;;6.13;5.50;;;;;;;;;;6217298;28;20026;-79
2021/04/12 17:08:00;;;;;;;6.30;5.43;;;6.60;99.90;;;;;;6200366;28;20469;-79
2021/04/12 17:11:00;;;;;;;7.10;5.60;;;6.40;99.90;;;;;;6216762;28;20030;-79
2021/04/12 17:14:31;;;;;;;7.93;5.85;;;6.20;99.90;;;;;;6204049;28;20030;-79
2021/04/12 17:17:51;;;;;;;8.00;6.57;;;6.40;99.90;;;;;;6202745;28;20050;-79
2021/04/12 17:21:16;;;;;;;6.75;5.93;;;6.70;99.90;;;;;;6192395;28;20041;-79
2021/04/12 17:24:26;;;;;;;9.80;6.30;;;6.30;99.90;;;;;;6217583;28;20065;-79
2021/04/12 17:27:43;;;;;;;9.05;6.15;;;6.10;99.90;;;;;;6201288;28;20116;-79
2021/04/12 17:31:37;;;;;;;7.10;6.05;;;6.10;99.90;;;;;;6186666;28;20044;-79
2021/04/12 17:34:41;;;;;;;9.25;6.22;;;5.90;99.90;;;;;;6111066;28;20077;-79